createdAt,value
2023-05-14T00:01:32.760Z,47.30
2023-05-14T00:04:01.454Z,47.67
2023-05-14T00:06:33.768Z,47.61
2023-05-14T00:09:04.947Z,47.33
2023-05-14T00:11:36.483Z,47.49
2023-05-14T00:14:12.301Z,47.25
2023-05-14T00:16:40.802Z,47.26
2023-05-14T00:19:11.377Z,47.46
2023-05-14T00:21:42.364Z,47.37
2023-05-14T00:24:10.920Z,47.22
2023-05-14T00:26:42.086Z,47.45
2023-05-14T00:29:11.466Z,47.37
2023-05-14T00:31:41.627Z,47.51
2023-05-14T00:34:12.899Z,47.23
2023-05-14T00:36:41.288Z,47.31
2023-05-14T00:39:09.934Z,47.41
2023-05-14T00:41:38.169Z,47.30
2023-05-14T00:44:06.466Z,47.40
2023-05-14T00:46:34.949Z,47.16
2023-05-14T00:49:03.739Z,47.44
2023-05-14T00:51:32.329Z,47.19
2023-05-14T00:54:01.319Z,47.02
2023-05-14T00:56:32.636Z,46.99
2023-05-14T00:59:01.452Z,47.28
2023-05-14T01:01:29.923Z,47.35
2023-05-14T01:03:59.017Z,47.11
2023-05-14T01:07:11.916Z,47.31
2023-05-14T01:09:54.437Z,47.08
2023-05-14T01:12:48.826Z,47.46
2023-05-14T01:15:31.138Z,47.07
2023-05-14T01:18:09.072Z,47.49
2023-05-14T01:20:40.318Z,47.63
2023-05-14T01:23:09.521Z,47.48
2023-05-14T01:25:38.454Z,47.12
2023-05-14T01:28:13.433Z,47.07
2023-05-14T01:30:52.569Z,47.35
2023-05-14T01:33:22.961Z,47.02
2023-05-14T01:35:53.967Z,47.01
2023-05-14T01:38:24.353Z,47.02
2023-05-14T01:40:54.657Z,46.89
2023-05-14T01:43:23.668Z,46.66
2023-05-14T01:45:52.046Z,46.67
2023-05-14T01:48:20.301Z,46.95
2023-05-14T01:50:48.687Z,46.93
2023-05-14T01:53:17.408Z,47.15
2023-05-14T01:55:45.652Z,47.15
2023-05-14T01:58:15.023Z,47.17
2023-05-14T02:00:43.459Z,46.81
2023-05-14T02:03:11.823Z,46.94
2023-05-14T02:05:40.734Z,47.00
2023-05-14T02:08:09.337Z,47.17
2023-05-14T02:10:37.637Z,47.18
2023-05-14T02:13:06.120Z,47.11
2023-05-14T02:15:34.529Z,47.43
2023-05-14T02:18:03.226Z,47.44
2023-05-14T02:20:31.790Z,47.30
2023-05-14T02:23:00.149Z,47.70
2023-05-14T02:25:28.566Z,47.60
2023-05-14T02:27:56.899Z,47.19
2023-05-14T02:30:25.286Z,47.39
2023-05-14T02:32:56.311Z,47.37
2023-05-14T02:35:25.921Z,47.76
2023-05-14T02:37:54.664Z,47.64
2023-05-14T02:40:23.259Z,47.57
2023-05-14T02:42:51.823Z,47.73
2023-05-14T02:45:20.362Z,47.88
2023-05-14T02:47:49.083Z,47.49
2023-05-14T02:50:17.388Z,47.55
2023-05-14T02:52:47.754Z,47.90
2023-05-14T02:55:16.065Z,48.01
2023-05-14T02:57:44.589Z,47.89
2023-05-14T03:00:13.486Z,47.93
2023-05-14T03:02:43.727Z,47.80
2023-05-14T03:05:15.103Z,47.80
2023-05-14T03:07:43.977Z,47.97
2023-05-14T03:10:12.786Z,47.51
2023-05-14T03:12:42.148Z,47.45
2023-05-14T03:15:11.091Z,47.40
2023-05-14T03:17:39.878Z,47.74
2023-05-14T03:20:08.706Z,47.80
2023-05-14T03:22:37.338Z,47.72
2023-05-14T03:25:06.560Z,47.62
2023-05-14T03:27:36.770Z,47.64
2023-05-14T03:30:06.069Z,47.45
2023-05-14T03:32:34.647Z,47.51
2023-05-14T03:35:03.083Z,47.12
2023-05-14T03:37:31.383Z,47.15
2023-05-14T03:40:00.074Z,47.26
2023-05-14T03:42:28.365Z,47.29
2023-05-14T03:44:59.653Z,47.39
2023-05-14T03:47:29.623Z,47.23
2023-05-14T03:50:01.553Z,47.38
2023-05-14T03:52:34.429Z,47.25
2023-05-14T03:55:04.799Z,47.18
2023-05-14T03:57:33.839Z,46.95
2023-05-14T04:00:08.342Z,47.35
2023-05-14T04:02:45.878Z,47.10
2023-05-14T04:05:17.224Z,46.62
2023-05-14T04:07:47.314Z,46.78
2023-05-14T04:10:16.383Z,46.26
2023-05-14T04:12:46.712Z,45.91
2023-05-14T04:15:16.285Z,45.94
2023-05-14T04:17:45.324Z,46.01
2023-05-14T04:20:14.817Z,46.05
2023-05-14T04:22:46.839Z,45.60
2023-05-14T04:25:18.814Z,45.45
2023-05-14T04:27:47.622Z,45.40
2023-05-14T04:30:16.698Z,45.10
2023-05-14T04:32:46.043Z,45.22
2023-05-14T04:35:18.652Z,45.21
2023-05-14T04:37:49.568Z,45.25
2023-05-14T04:40:25.663Z,44.62
2023-05-14T04:42:54.609Z,45.37
2023-05-14T04:45:23.484Z,44.98
2023-05-14T04:47:55.206Z,45.16
2023-05-14T04:50:25.785Z,44.95
2023-05-14T04:52:56.115Z,44.96
2023-05-14T04:55:25.190Z,44.83
2023-05-14T04:57:55.755Z,44.93
2023-05-14T05:00:30.960Z,44.24
2023-05-14T05:03:02.346Z,44.56
2023-05-14T05:05:37.034Z,44.33
2023-05-14T05:08:06.296Z,44.34
2023-05-14T05:10:39.060Z,43.81
2023-05-14T05:13:11.207Z,43.76
2023-05-14T05:15:42.632Z,43.42
2023-05-14T05:18:11.712Z,43.09
2023-05-14T05:20:43.039Z,43.14
2023-05-14T05:23:24.204Z,43.15
2023-05-14T05:25:56.067Z,43.28
2023-05-14T05:28:27.561Z,42.84
2023-05-14T05:30:56.742Z,43.12
2023-05-14T05:33:25.780Z,42.90
2023-05-14T05:35:54.548Z,43.09
2023-05-14T05:38:23.766Z,43.21
2023-05-14T05:40:53.062Z,43.13
2023-05-14T05:43:29.264Z,42.99
2023-05-14T05:45:58.842Z,42.77
2023-05-14T05:48:29.886Z,42.86
2023-05-14T05:51:00.139Z,43.04
2023-05-14T05:53:33.787Z,42.44
2023-05-14T05:56:06.330Z,42.92
2023-05-14T05:58:35.062Z,43.05
2023-05-14T06:01:05.031Z,42.95
2023-05-14T06:03:33.706Z,42.64
2023-05-14T06:06:03.700Z,43.56
2023-05-14T06:08:34.772Z,44.01
2023-05-14T06:11:05.151Z,43.74
2023-05-14T06:13:33.889Z,43.38
2023-05-14T06:16:02.609Z,43.55
2023-05-14T06:18:33.062Z,42.81
2023-05-14T06:21:01.850Z,42.53
2023-05-14T06:23:30.813Z,42.16
2023-05-14T06:25:59.406Z,42.46
2023-05-14T06:28:28.252Z,42.04
2023-05-14T06:30:58.850Z,41.93
2023-05-14T06:33:31.338Z,42.11
2023-05-14T06:36:05.734Z,42.13
2023-05-14T06:38:34.914Z,42.30
2023-05-14T06:41:03.786Z,42.06
2023-05-14T06:43:34.785Z,42.58
2023-05-14T06:46:03.150Z,42.11
2023-05-14T06:48:31.954Z,43.27
2023-05-14T06:51:01.233Z,43.53
2023-05-14T06:53:29.890Z,42.89
2023-05-14T06:55:59.066Z,42.77
2023-05-14T06:58:29.107Z,42.95
2023-05-14T07:00:59.473Z,42.66
2023-05-14T07:03:29.547Z,42.57
2023-05-14T07:08:51.667Z,42.83
2023-05-14T07:11:22.809Z,42.93
2023-05-14T07:13:51.792Z,42.65
2023-05-14T07:16:21.091Z,42.79
2023-05-14T07:18:49.669Z,42.68
2023-05-14T07:21:19.843Z,42.96
2023-05-14T07:23:48.780Z,43.04
2023-05-14T07:26:18.545Z,43.38
2023-05-14T07:28:48.493Z,43.82
2023-05-14T07:31:17.286Z,44.13
2023-05-14T07:33:56.206Z,43.86
2023-05-14T07:36:28.540Z,44.29
2023-05-14T07:41:56.944Z,44.09
2023-05-14T07:44:25.045Z,44.01
2023-05-14T07:46:54.631Z,43.60
2023-05-14T07:49:23.902Z,43.38
2023-05-14T07:51:52.748Z,45.09
2023-05-14T07:54:21.401Z,45.14
2023-05-14T07:56:50.074Z,44.23
2023-05-14T07:59:19.731Z,44.65
2023-05-14T08:24:03.197Z,44.52
2023-05-14T08:39:25.859Z,43.98
2023-05-14T08:54:39.318Z,43.34
2023-05-14T08:57:11.617Z,45.88
2023-05-14T08:59:52.955Z,45.05
2023-05-14T09:02:41.896Z,43.98
2023-05-14T09:08:44.605Z,42.83
2023-05-14T09:11:49.400Z,43.07
2023-05-14T09:14:55.995Z,42.92
2023-05-14T09:17:59.676Z,42.76
2023-05-14T09:21:10.501Z,43.54
2023-05-14T09:24:04.887Z,43.86
2023-05-14T09:26:36.373Z,43.41
2023-05-14T09:29:07.464Z,43.54
2023-05-14T09:31:37.693Z,43.53
2023-05-14T09:34:09.733Z,43.24
2023-05-14T09:36:41.245Z,43.32
2023-05-14T09:39:10.018Z,42.78
2023-05-14T09:41:42.147Z,42.90
2023-05-14T09:44:11.324Z,43.06
2023-05-14T09:46:39.814Z,42.88
2023-05-14T09:49:08.267Z,43.24
2023-05-14T09:51:38.006Z,44.33
2023-05-14T09:54:06.835Z,43.39
2023-05-14T09:56:35.797Z,43.29
2023-05-14T09:59:06.939Z,43.57
2023-05-14T10:01:36.677Z,44.40
2023-05-14T10:04:08.061Z,43.88
2023-05-14T10:06:42.738Z,43.96
2023-05-14T10:09:14.145Z,43.99
2023-05-14T10:11:45.543Z,43.99
2023-05-14T10:14:43.579Z,43.96
2023-05-14T10:17:18.765Z,44.01
2023-05-14T10:19:58.782Z,44.55
2023-05-14T10:25:45.316Z,45.24
2023-05-14T10:28:14.615Z,44.59
2023-05-14T10:30:50.200Z,44.18
2023-05-14T10:33:19.963Z,43.62
2023-05-14T10:36:08.119Z,43.52
2023-05-14T10:38:38.019Z,44.06
2023-05-14T10:41:12.629Z,44.00
2023-05-14T10:43:42.461Z,43.91
2023-05-14T10:46:18.274Z,44.80
2023-05-14T10:48:49.267Z,44.16
2023-05-14T10:51:21.178Z,44.38
2023-05-14T10:53:50.006Z,43.90
2023-05-14T10:56:22.540Z,43.59
2023-05-14T10:58:59.039Z,44.59
2023-05-14T11:01:29.483Z,44.11
2023-05-14T11:04:04.552Z,43.86
2023-05-14T11:06:53.614Z,43.77
2023-05-14T11:09:31.894Z,42.81
2023-05-14T11:12:21.821Z,43.28
2023-05-14T11:15:33.305Z,43.89
2023-05-14T11:18:55.156Z,44.12
2023-05-14T11:21:31.111Z,44.89
2023-05-14T11:24:18.685Z,44.18
2023-05-14T11:26:57.126Z,44.26
2023-05-14T11:29:38.596Z,43.91
2023-05-14T11:32:53.988Z,42.94
2023-05-14T11:35:36.436Z,43.50
2023-05-14T11:40:21.303Z,42.61
2023-05-14T11:41:37.769Z,42.72
2023-05-14T11:44:09.899Z,41.13
2023-05-14T11:46:58.079Z,41.26
2023-05-14T11:49:36.480Z,42.22
2023-05-14T11:52:14.965Z,43.18
2023-05-14T11:54:54.365Z,43.00
2023-05-14T11:57:28.222Z,42.50
2023-05-14T12:00:27.840Z,43.17
2023-05-14T12:03:30.152Z,43.40
2023-05-14T12:06:19.762Z,43.79
2023-05-14T12:10:08.799Z,44.11
2023-05-14T12:12:55.439Z,43.98
2023-05-14T12:15:30.626Z,43.62
2023-05-14T12:18:02.044Z,43.04
2023-05-14T12:20:47.935Z,42.83
2023-05-14T12:23:34.370Z,42.73
2023-05-14T12:26:15.624Z,42.54
2023-05-14T12:28:51.832Z,42.46
2023-05-14T12:31:36.233Z,41.67
2023-05-14T12:37:22.896Z,41.11
2023-05-14T12:40:24.742Z,41.62
2023-05-14T12:43:04.805Z,41.16
2023-05-14T12:45:40.684Z,41.78
2023-05-14T12:48:10.879Z,41.96
2023-05-14T12:50:53.662Z,41.56
2023-05-14T12:53:27.007Z,41.11
2023-05-14T12:56:06.950Z,41.64
2023-05-14T12:58:38.491Z,39.87
2023-05-14T13:01:18.294Z,40.63
2023-05-14T13:03:58.231Z,41.11
2023-05-14T13:06:34.441Z,40.77
2023-05-14T13:09:09.109Z,40.92
2023-05-14T13:11:39.914Z,40.37
2023-05-14T13:14:11.135Z,40.75
2023-05-14T13:16:43.131Z,41.10
2023-05-14T13:19:14.919Z,41.23
2023-05-14T13:21:43.950Z,41.44
2023-05-14T13:24:17.722Z,42.94
2023-05-14T13:26:55.013Z,44.41
2023-05-14T13:29:27.990Z,45.10
2023-05-14T13:32:09.968Z,44.86
2023-05-14T13:34:45.385Z,44.88
2023-05-14T13:37:46.240Z,46.03
2023-05-14T13:40:24.709Z,46.88
2023-05-14T13:43:10.847Z,49.54
2023-05-14T13:45:49.257Z,51.65
2023-05-14T13:48:25.422Z,52.25
2023-05-14T13:50:59.258Z,53.13
2023-05-14T13:53:43.939Z,54.37
2023-05-14T13:56:12.848Z,54.59
2023-05-14T13:58:43.892Z,54.70
2023-05-14T14:01:30.986Z,54.85
2023-05-14T14:04:07.152Z,54.74
2023-05-14T14:06:36.751Z,54.84
2023-05-14T14:09:11.326Z,54.55
2023-05-14T14:11:42.354Z,54.93
2023-05-14T14:14:44.262Z,54.27
2023-05-14T14:17:18.148Z,54.59
2023-05-14T14:19:46.954Z,54.47
2023-05-14T14:22:28.956Z,54.33
2023-05-14T14:25:08.524Z,54.16
2023-05-14T14:27:43.977Z,52.52
2023-05-14T14:30:28.032Z,51.77
2023-05-14T14:33:06.228Z,51.44
2023-05-14T14:35:49.421Z,50.98
2023-05-14T14:38:31.116Z,50.59
2023-05-14T14:41:00.358Z,50.78
2023-05-14T14:43:51.639Z,49.94
2023-05-14T14:46:25.645Z,49.69
2023-05-14T14:49:04.374Z,49.50
2023-05-14T14:51:38.720Z,49.13
2023-05-14T14:54:08.546Z,48.45
2023-05-14T14:56:38.598Z,48.46
2023-05-14T14:59:10.094Z,47.55
2023-05-14T15:01:52.844Z,47.78
2023-05-14T15:04:27.345Z,47.60
2023-05-14T15:07:02.067Z,47.25
2023-05-14T15:09:36.878Z,47.57
2023-05-14T15:12:15.086Z,47.57
2023-05-14T15:14:53.744Z,48.18
2023-05-14T15:17:29.195Z,48.25
2023-05-14T15:20:06.306Z,48.09
2023-05-14T15:22:38.624Z,48.37
2023-05-14T15:25:20.359Z,47.89
2023-05-14T15:27:57.621Z,48.28
2023-05-14T15:30:30.635Z,48.85
2023-05-14T15:33:08.869Z,48.34
2023-05-14T15:35:51.352Z,47.21
2023-05-14T15:38:28.405Z,47.48
2023-05-14T15:41:08.176Z,47.82
2023-05-14T15:43:48.792Z,48.50
2023-05-14T15:46:59.457Z,48.43
2023-05-14T15:49:37.148Z,48.59
2023-05-14T15:52:16.045Z,48.23
2023-05-14T15:54:59.829Z,47.86
2023-05-14T15:57:35.241Z,47.97
2023-05-14T16:00:18.943Z,47.65
2023-05-14T16:02:47.649Z,47.57
2023-05-14T16:05:17.638Z,47.45
2023-05-14T16:07:51.430Z,47.65
2023-05-14T16:10:26.328Z,48.37
2023-05-14T16:12:58.926Z,48.07
2023-05-14T16:15:29.322Z,48.62
2023-05-14T16:20:29.931Z,47.61
2023-05-14T16:23:01.034Z,47.33
2023-05-14T16:25:33.005Z,47.74
2023-05-14T16:28:02.224Z,48.02
2023-05-14T16:30:39.489Z,48.02
2023-05-14T16:33:08.225Z,47.91
2023-05-14T16:35:41.684Z,48.10
2023-05-14T16:38:16.034Z,48.45
2023-05-14T16:40:45.318Z,48.44
2023-05-14T16:43:22.299Z,48.37
2023-05-14T16:45:57.723Z,48.11
2023-05-14T16:48:28.138Z,47.89
2023-05-14T16:51:04.154Z,49.23
2023-05-14T16:53:33.053Z,49.10
2023-05-14T16:56:10.171Z,48.90
2023-05-14T16:58:42.423Z,48.65
2023-05-14T17:01:17.299Z,48.81
2023-05-14T17:03:53.173Z,48.69
2023-05-14T17:06:29.797Z,48.67
2023-05-14T17:09:01.453Z,48.77
2023-05-14T17:11:30.258Z,48.80
2023-05-14T17:13:59.100Z,48.84
2023-05-14T17:16:30.962Z,48.92
2023-05-14T17:19:05.596Z,49.19
2023-05-14T17:21:36.968Z,49.90
2023-05-14T17:25:10.192Z,49.99
2023-05-14T17:27:47.060Z,49.62
2023-05-14T17:30:25.537Z,49.40
2023-05-14T17:32:56.544Z,49.46
2023-05-14T17:35:31.515Z,49.89
2023-05-14T17:38:01.079Z,50.02
2023-05-14T17:40:34.315Z,50.17
2023-05-14T17:43:10.192Z,50.09
2023-05-14T17:45:53.929Z,50.19
2023-05-14T17:48:26.684Z,50.44
2023-05-14T17:51:00.342Z,50.23
2023-05-14T17:53:45.677Z,50.06
2023-05-14T17:56:23.238Z,49.77
2023-05-14T17:59:06.373Z,49.62
2023-05-14T18:01:41.156Z,49.55
2023-05-14T18:04:13.195Z,49.71
2023-05-14T18:06:52.084Z,49.59
2023-05-14T18:09:36.741Z,50.00
2023-05-14T18:12:13.870Z,49.44
2023-05-14T18:14:50.321Z,49.29
2023-05-14T18:17:30.471Z,49.45
2023-05-14T18:20:14.037Z,49.26
2023-05-14T18:25:50.944Z,49.11
2023-05-14T18:28:21.826Z,49.77
2023-05-14T18:31:06.126Z,49.67
2023-05-14T18:33:53.005Z,49.66
2023-05-14T18:36:35.443Z,49.52
2023-05-14T18:39:15.718Z,49.92
2023-05-14T18:41:59.730Z,50.17
2023-05-14T18:44:45.651Z,50.45
2023-05-14T18:48:07.421Z,50.74
2023-05-14T18:50:45.258Z,51.03
2023-05-14T18:53:21.005Z,51.49
2023-05-14T18:56:00.687Z,51.40
2023-05-14T18:58:35.951Z,51.36
2023-05-14T19:01:27.107Z,51.13
2023-05-14T19:07:58.525Z,51.22
2023-05-14T19:10:30.173Z,51.22
2023-05-14T19:13:00.310Z,51.35
2023-05-14T19:15:34.444Z,51.07
2023-05-14T19:18:13.324Z,51.36
2023-05-14T19:20:45.811Z,51.36
2023-05-14T19:23:14.873Z,51.43
2023-05-14T19:25:51.452Z,51.77
2023-05-14T19:28:28.753Z,51.75
2023-05-14T19:31:17.541Z,51.75
2023-05-14T19:33:48.605Z,51.87
2023-05-14T19:36:22.787Z,51.68
2023-05-14T19:39:00.374Z,51.41
2023-05-14T19:41:58.607Z,51.38
2023-05-14T19:47:24.361Z,51.23
2023-05-14T19:50:06.056Z,51.28
2023-05-14T19:52:47.499Z,51.19
2023-05-14T19:55:21.325Z,51.23
2023-05-14T19:58:04.480Z,51.65
2023-05-14T20:00:44.890Z,51.57
2023-05-14T20:03:22.111Z,51.81
2023-05-14T20:05:57.659Z,51.69
2023-05-14T20:08:31.233Z,51.63
2023-05-14T20:11:05.382Z,51.32
2023-05-14T20:13:41.465Z,51.12
2023-05-14T20:16:13.432Z,51.46
2023-05-14T20:18:45.571Z,51.58
2023-05-14T20:21:22.466Z,51.62
2023-05-14T20:24:03.159Z,51.54
2023-05-14T20:26:37.701Z,51.57
2023-05-14T20:33:32.614Z,51.82
2023-05-14T20:36:09.410Z,51.90
2023-05-14T20:38:53.530Z,51.75
2023-05-14T20:41:35.377Z,51.92
2023-05-14T20:44:13.784Z,52.05
2023-05-14T20:46:50.272Z,51.96
2023-05-14T20:49:40.375Z,51.83
2023-05-14T20:52:23.120Z,52.18
2023-05-14T20:55:02.006Z,51.99
2023-05-14T20:57:46.707Z,52.23
2023-05-14T21:00:20.081Z,52.43
2023-05-14T21:03:01.811Z,52.50
2023-05-14T21:05:36.251Z,52.41
2023-05-14T21:08:09.876Z,51.87
2023-05-14T21:10:48.159Z,51.29
2023-05-14T21:13:17.860Z,51.45
2023-05-14T21:15:49.607Z,51.72
2023-05-14T21:18:59.248Z,51.31
2023-05-14T21:21:33.854Z,51.27
2023-05-14T21:24:09.320Z,51.32
2023-05-14T21:26:54.177Z,50.87
2023-05-14T21:29:26.801Z,50.53
2023-05-14T21:32:12.169Z,50.21
2023-05-14T21:34:52.240Z,50.56
2023-05-14T21:37:33.667Z,50.50
2023-05-14T21:40:28.142Z,50.22
2023-05-14T21:46:05.572Z,50.89
2023-05-14T21:48:46.685Z,50.84
2023-05-14T21:51:29.320Z,50.90
2023-05-14T21:54:09.286Z,50.51
2023-05-14T21:56:57.196Z,50.56
2023-05-14T21:59:41.014Z,50.70
2023-05-14T22:02:17.499Z,50.55
2023-05-14T22:04:52.608Z,50.60
2023-05-14T22:07:24.379Z,50.76
2023-05-14T22:09:55.135Z,50.70
2023-05-14T22:12:27.151Z,50.31
2023-05-14T22:15:04.563Z,50.51
2023-05-14T22:17:36.507Z,50.69
2023-05-14T22:20:10.456Z,50.39
2023-05-14T22:22:52.682Z,50.62
2023-05-14T22:25:26.696Z,50.47
2023-05-14T22:27:57.911Z,50.80
2023-05-14T22:30:34.110Z,50.87
2023-05-14T22:33:10.929Z,50.56
2023-05-14T22:35:43.686Z,50.71
2023-05-14T22:38:23.558Z,50.63
2023-05-14T22:40:53.112Z,50.58
2023-05-14T22:43:24.445Z,50.70
2023-05-14T22:45:58.644Z,50.62
2023-05-14T22:48:28.251Z,50.78
2023-05-14T22:50:57.498Z,50.61
2023-05-14T22:53:30.149Z,50.65
2023-05-14T22:56:02.136Z,50.61
2023-05-14T22:58:33.359Z,50.47
2023-05-14T23:01:04.651Z,50.45
2023-05-14T23:03:35.001Z,50.18
2023-05-14T23:06:03.766Z,50.02
2023-05-14T23:08:36.323Z,49.89
2023-05-14T23:11:05.030Z,49.63
2023-05-14T23:13:36.522Z,49.81
2023-05-14T23:16:09.417Z,49.79
2023-05-14T23:18:38.565Z,49.61
2023-05-14T23:21:10.419Z,50.01
2023-05-14T23:23:40.649Z,49.73
2023-05-14T23:26:09.268Z,49.45
2023-05-14T23:28:37.654Z,50.02
2023-05-14T23:31:07.567Z,49.54
2023-05-14T23:33:40.383Z,50.07
2023-05-14T23:36:10.022Z,49.87
2023-05-14T23:38:44.087Z,49.45
2023-05-14T23:41:20.844Z,49.67
2023-05-14T23:43:56.056Z,49.68
2023-05-14T23:46:26.618Z,49.87
2023-05-14T23:49:01.338Z,49.95
2023-05-14T23:51:32.300Z,50.04
2023-05-14T23:54:05.717Z,49.85
2023-05-14T23:56:41.631Z,49.80
2023-05-14T23:59:18.902Z,49.86
